Time;durP1;ratioP1;P1;durP2;ratioP2;P2;SDS_P1;SDS_P2;PMS_P1;PMS_P2;Temp;Humidity;BMP_temperature;BMP_pressure;BME280_temperature;BME280_humidity;BME280_pressure;Samples;Min_cycle;Max_cycle;Signal;HPM_P1;HPM_P2
2022/04/25 04:01:39;;;;;;;13.10;7.63;;;;;;;;;;5429335;22;20527;-77
2022/04/25 04:04:05;;;;;;;8.23;7.43;;;6.20;96.30;;;;;;4995287;28;20408;-78
2022/04/25 04:06:31;;;;;;;8.17;7.37;;;6.20;96.30;;;;;;4977380;28;20420;-77
2022/04/25 04:08:57;;;;;;;8.90;8.03;;;6.30;96.30;;;;;;4973873;28;20190;-77
2022/04/25 04:11:22;;;;;;;9.17;8.27;;;6.30;96.30;;;;;;4987396;28;20462;-77
2022/04/25 04:13:48;;;;;;;9.53;8.60;;;6.30;96.30;;;;;;4994609;28;20186;-77
2022/04/25 04:16:13;;;;;;;10.23;8.77;;;;;;;;;;4994377;28;20198;-75
2022/04/25 04:18:41;;;;;;;9.63;8.63;;;6.30;96.30;;;;;;4993710;28;20233;-78
2022/04/25 04:21:07;;;;;;;8.50;7.67;;;6.30;96.30;;;;;;4994324;28;20205;-78
2022/04/25 04:23:33;;;;;;;10.17;8.97;;;6.30;96.30;;;;;;4976921;28;20847;-78
2022/04/25 04:25:59;;;;;;;10.20;9.20;;;6.30;96.30;;;;;;4976718;28;20269;-77
2022/04/25 04:28:24;;;;;;;10.47;9.47;;;6.30;96.30;;;;;;4993700;28;20460;-76
2022/04/25 04:30:51;;;;;;;8.90;8.10;;;6.30;96.30;;;;;;4976773;28;20285;-76
2022/04/25 04:33:16;;;;;;;9.13;8.30;;;6.30;96.30;;;;;;4994296;28;20174;-79
2022/04/25 04:38:26;;;;;;;9.83;8.90;;;6.30;96.30;;;;;;4993893;28;20173;-79
2022/04/25 04:40:51;;;;;;;9.60;8.70;;;6.30;96.30;;;;;;4977230;28;20437;-78
2022/04/25 04:43:17;;;;;;;10.00;9.07;;;6.30;96.30;;;;;;4950570;28;20226;-73
2022/04/25 04:45:43;;;;;;;10.63;9.60;;;6.30;96.30;;;;;;4941337;28;20191;-74
2022/04/25 04:48:09;;;;;;;15.10;9.23;;;6.30;96.30;;;;;;4957424;28;20262;-73
2022/04/25 04:55:42;;;;;;;9.90;9.10;;;6.30;96.30;;;;;;4973161;28;20969;-73
2022/04/25 04:58:07;;;;;;;9.70;8.90;;;6.40;96.30;;;;;;4974146;28;20504;-73
2022/04/25 05:27:16;;;;;;;5.37;4.90;;;;;;;;;;4973977;28;20545;-73
2022/04/25 05:29:42;;;;;;;4.87;4.40;;;;;;;;;;4972935;28;20439;-73
2022/04/25 05:45:20;;;;;;;16.73;5.30;;;6.50;96.30;;;;;;5656629;22;20489;-74
2022/04/25 05:47:48;;;;;;;19.67;4.60;;;6.40;96.30;;;;;;4976280;28;20445;-73
2022/04/25 05:57:50;;;;;;;163.40;9.90;;;;;;;;;;5013634;23;20859;-73
2022/04/25 06:08:27;;;;;;;490.67;15.93;;;6.10;96.30;;;;;;6053114;22;20623;-74
2022/04/25 06:10:54;;;;;;;541.80;15.53;;;;;;;;;;4992480;28;20471;-73
2022/04/25 06:13:20;;;;;;;332.60;12.30;;;;;;;;;;4992832;28;20409;-73
2022/04/25 06:15:45;;;;;;;592.27;21.00;;;6.00;96.30;;;;;;4993323;28;20408;-73
2022/04/25 06:18:11;;;;;;;441.90;13.93;;;6.00;96.30;;;;;;4976604;28;20555;-73
2022/04/25 06:28:45;;;;;;;792.73;25.30;;;5.90;96.30;;;;;;5562721;22;20518;-72
2022/04/25 06:38:57;;;;;;;219.37;12.30;;;;;;;;;;5132703;22;20499;-77
2022/04/25 06:41:23;;;;;;;755.37;25.10;;;5.90;96.30;;;;;;4988029;28;20503;-71
2022/04/25 06:43:49;;;;;;;795.67;24.07;;;;;;;;;;4987728;28;20193;-72
2022/04/25 06:46:15;;;;;;;471.20;17.07;;;;;;;;;;4990097;28;20184;-76
2022/04/25 06:48:40;;;;;;;456.77;17.43;;;5.90;96.30;;;;;;4991762;28;20178;-75
2022/04/25 06:53:42;;;;;;;447.67;16.50;;;;;;;;;;6018456;22;20290;-72
2022/04/25 06:56:07;;;;;;;708.03;22.77;;;6.10;96.30;;;;;;4952433;29;20448;-72
2022/04/25 06:58:33;;;;;;;616.60;21.70;;;6.00;96.30;;;;;;4953579;29;20720;-73
2022/04/25 08:05:49;;;;;;;121.00;13.60;;;;;;;;;;5020522;23;20481;-73
2022/04/25 08:08:15;;;;;;;58.03;14.83;;;6.50;96.30;;;;;;4962145;28;20947;-73
2022/04/25 08:18:36;;;;;;;98.50;15.10;;;6.40;96.30;;;;;;4983574;28;20521;-76
2022/04/25 08:21:02;;;;;;;163.00;16.00;;;6.30;96.30;;;;;;4965624;28;20515;-75
2022/04/25 08:23:27;;;;;;;174.50;19.57;;;6.30;96.30;;;;;;4994806;28;20182;-76
2022/04/25 08:25:53;;;;;;;235.53;18.10;;;6.30;96.30;;;;;;4995138;28;20560;-77
2022/04/25 08:28:19;;;;;;;186.37;16.20;;;6.20;96.30;;;;;;4994136;28;20206;-75
2022/04/25 08:30:46;;;;;;;156.80;15.80;;;6.30;96.30;;;;;;4993036;28;20570;-75
2022/04/25 08:33:12;;;;;;;279.87;22.13;;;6.30;96.30;;;;;;4993344;28;20432;-74
2022/04/25 08:35:38;;;;;;;455.83;20.90;;;6.30;96.30;;;;;;4993965;28;20520;-76
2022/04/25 08:38:05;;;;;;;289.97;18.50;;;;;;;;;;4993111;28;20554;-75
2022/04/25 08:40:31;;;;;;;312.80;21.47;;;6.40;96.30;;;;;;4975032;28;20441;-74
2022/04/25 08:42:58;;;;;;;299.27;19.60;;;;;;;;;;4989027;28;20429;-74
2022/04/25 08:45:24;;;;;;;80.23;17.80;;;6.30;96.30;;;;;;4993251;28;20424;-74
2022/04/25 08:47:55;;;;;;;131.43;17.40;;;6.30;96.30;;;;;;4993558;28;20420;-76
2022/04/25 08:50:22;;;;;;;94.97;18.37;;;6.30;96.30;;;;;;4976054;28;20436;-74
2022/04/25 08:52:48;;;;;;;309.13;20.40;;;6.30;96.30;;;;;;4993620;28;20482;-75
2022/04/25 08:55:14;;;;;;;258.53;20.60;;;6.30;96.30;;;;;;4993386;28;20884;-75
2022/04/25 08:57:42;;;;;;;97.53;18.53;;;6.30;96.30;;;;;;4993075;28;20690;-75
2022/04/25 09:00:08;;;;;;;182.40;19.70;;;6.30;96.30;;;;;;4993671;28;20409;-76
2022/04/25 09:02:34;;;;;;;248.77;19.53;;;;;;;;;;4993099;28;20432;-75
2022/04/25 09:05:01;;;;;;;151.20;18.20;;;6.30;96.30;;;;;;4956569;28;20414;-74
2022/04/25 09:07:27;;;;;;;93.47;17.10;;;;;;;;;;4966803;28;20476;-74
2022/04/25 09:09:54;;;;;;;98.90;17.37;;;6.40;96.30;;;;;;4969329;28;20915;-73
2022/04/25 09:12:20;;;;;;;62.07;18.77;;;6.40;96.30;;;;;;4975696;28;20812;-76
2022/04/25 09:14:46;;;;;;;36.20;17.13;;;6.40;96.30;;;;;;4991692;28;20955;-75
2022/04/25 09:17:12;;;;;;;59.83;18.53;;;6.40;96.30;;;;;;4973625;28;20465;-74
2022/04/25 09:19:39;;;;;;;48.60;17.70;;;6.40;96.30;;;;;;4956077;28;20967;-73
2022/04/25 09:22:09;;;;;;;109.70;19.73;;;6.40;96.30;;;;;;4975564;28;20444;-74
2022/04/25 09:24:43;;;;;;;94.53;18.60;;;6.30;96.30;;;;;;4992892;28;20412;-75
2022/04/25 09:27:09;;;;;;;36.10;18.97;;;;;;;;;;4975623;28;20879;-75
2022/04/25 09:29:36;;;;;;;45.40;20.47;;;;;;;;;;4992215;28;20524;-74
2022/04/25 09:32:03;;;;;;;161.77;19.70;;;6.50;96.30;;;;;;4992642;28;20877;-75
2022/04/25 09:37:15;;;;;;;162.57;18.10;;;6.50;96.30;;;;;;4991727;28;20479;-75
2022/04/25 09:39:40;;;;;;;55.03;17.90;;;;;;;;;;4992086;28;20515;-73
2022/04/25 09:42:07;;;;;;;38.60;17.47;;;6.50;96.30;;;;;;4977449;28;20845;-75
2022/04/25 09:44:59;;;;;;;39.07;18.67;;;6.60;96.30;;;;;;4975083;28;20584;-74
2022/04/25 09:47:29;;;;;;;36.20;17.10;;;6.50;96.30;;;;;;4955744;28;20422;-71
2022/04/25 09:49:58;;;;;;;97.13;19.67;;;;;;;;;;4964417;28;20475;-73
2022/04/25 09:52:24;;;;;;;100.20;20.70;;;6.50;96.30;;;;;;4967335;28;20455;-70
2022/04/25 09:54:50;;;;;;;155.77;21.20;;;;;;;;;;4971077;28;20456;-73
2022/04/25 09:57:29;;;;;;;62.43;17.60;;;6.50;96.30;;;;;;4967797;28;20660;-74
2022/04/25 09:59:56;;;;;;;49.77;20.77;;;6.50;96.30;;;;;;4967382;28;20436;-74
2022/04/25 10:02:22;;;;;;;55.07;20.23;;;;;;;;;;4974921;28;20440;-74
2022/04/25 10:04:48;;;;;;;28.27;20.90;;;6.60;96.30;;;;;;4992036;28;20829;-74
2022/04/25 10:07:14;;;;;;;29.10;19.07;;;6.70;96.30;;;;;;4992538;28;20427;-75
2022/04/25 10:09:40;;;;;;;28.60;20.17;;;6.70;96.30;;;;;;4992172;28;20188;-74
2022/04/25 10:12:06;;;;;;;26.10;18.90;;;6.80;96.30;;;;;;4991896;28;20476;-73
2022/04/25 10:14:32;;;;;;;32.40;20.63;;;;;;;;;;4992299;28;20901;-72
2022/04/25 10:16:59;;;;;;;25.13;19.17;;;;;;;;;;4991997;28;20460;-75
2022/04/25 10:19:25;;;;;;;23.67;18.20;;;6.80;96.30;;;;;;4987185;28;20429;-75
2022/04/25 10:21:53;;;;;;;28.80;20.13;;;;;;;;;;4969074;28;20947;-74
2022/04/25 10:24:19;;;;;;;29.60;20.60;;;;;;;;;;4967401;28;20420;-73
2022/04/25 10:26:46;;;;;;;23.23;19.23;;;;;;;;;;4969275;28;20520;-76
2022/04/25 10:29:17;;;;;;;29.27;20.30;;;7.00;96.30;;;;;;4991266;28;20491;-74
2022/04/25 10:31:45;;;;;;;23.43;18.80;;;;;;;;;;4992297;28;20486;-72
2022/04/25 10:34:14;;;;;;;25.63;19.00;;;6.90;96.30;;;;;;4992268;28;20500;-73
2022/04/25 10:36:39;;;;;;;25.40;18.00;;;6.90;96.30;;;;;;4992161;28;20444;-72
2022/04/25 10:39:22;;;;;;;23.33;17.40;;;6.90;96.30;;;;;;4991625;28;20482;-73
2022/04/25 10:44:44;;;;;;;21.50;17.40;;;;;;;;;;4992662;28;20779;-76
2022/04/25 10:47:15;;;;;;;25.50;16.57;;;7.00;96.30;;;;;;4978430;28;20428;-75
2022/04/25 10:49:58;;;;;;;36.73;19.53;;;7.00;96.30;;;;;;4996005;28;20496;-75
2022/04/25 10:55:09;;;;;;;22.83;17.83;;;6.90;96.30;;;;;;4998153;28;20427;-77
2022/04/25 10:57:35;;;;;;;28.27;20.10;;;;;;;;;;4981199;28;20524;-77
2022/04/25 11:00:02;;;;;;;26.87;20.30;;;6.80;96.30;;;;;;4997202;28;20415;-75
2022/04/25 11:03:09;;;;;;;25.87;19.00;;;6.70;96.30;;;;;;5878234;23;20511;-74
2022/04/25 11:05:36;;;;;;;24.00;19.13;;;;;;;;;;4976185;28;20547;-74
2022/04/25 11:08:22;;;;;;;25.13;20.43;;;6.90;96.30;;;;;;4975561;28;20779;-73
2022/04/25 11:10:57;;;;;;;24.13;18.87;;;7.00;96.30;;;;;;4968245;28;20446;-74
2022/04/25 11:13:26;;;;;;;24.83;18.90;;;7.10;96.30;;;;;;4956668;29;20414;-76
2022/04/25 11:15:56;;;;;;;24.87;18.43;;;7.00;96.30;;;;;;4956687;29;20415;-75
2022/04/25 11:18:30;;;;;;;22.30;17.97;;;7.10;96.30;;;;;;4956380;29;20468;-74
2022/04/25 11:20:56;;;;;;;26.00;19.53;;;;;;;;;;4939364;29;20461;-76
2022/04/25 11:23:31;;;;;;;22.03;18.40;;;;;;;;;;4942888;29;20425;-72
2022/04/25 11:26:01;;;;;;;25.23;18.00;;;7.50;96.30;;;;;;4939863;29;20186;-72
2022/04/25 11:28:28;;;;;;;25.87;19.00;;;;;;;;;;4947574;29;20863;-75
2022/04/25 11:31:12;;;;;;;24.50;18.07;;;;;;;;;;4956469;28;20871;-75
2022/04/25 11:33:46;;;;;;;23.07;17.80;;;7.90;96.30;;;;;;4956015;29;20425;-76
2022/04/25 11:36:13;;;;;;;23.97;19.13;;;;;;;;;;4955824;29;20755;-78
2022/04/25 11:41:26;;;;;;;27.70;19.23;;;7.80;96.30;;;;;;4956538;28;20445;-75
2022/04/25 11:43:51;;;;;;;26.87;19.03;;;8.00;96.30;;;;;;4955678;29;20489;-75
2022/04/25 11:46:17;;;;;;;22.80;17.63;;;8.10;96.30;;;;;;4956147;29;20919;-75
2022/04/25 11:48:51;;;;;;;25.63;19.70;;;8.20;96.30;;;;;;4955527;29;20186;-74
2022/04/25 11:51:24;;;;;;;25.50;16.73;;;;;;;;;;4955895;28;20257;-75
2022/04/25 11:53:53;;;;;;;22.87;18.47;;;;;;;;;;4938606;29;20511;-75
2022/04/25 11:56:23;;;;;;;20.77;18.07;;;;;;;;;;4931078;29;20438;-72
2022/04/25 11:58:50;;;;;;;22.23;17.73;;;;;;;;;;4939752;29;20831;-74
2022/04/25 12:01:35;;;;;;;20.87;18.07;;;8.40;96.30;;;;;;4938721;28;20454;-74
2022/04/25 12:04:29;;;;;;;21.83;17.93;;;9.00;96.30;;;;;;4955833;29;20434;-75
2022/04/25 12:07:20;;;;;;;29.83;19.20;;;10.20;96.30;;;;;;4943817;29;20419;-75
2022/04/25 12:15:34;;;;;;;14.77;13.33;;;11.00;96.30;;;;;;4954864;29;20449;-73
2022/04/25 12:18:13;;;;;;;14.40;12.17;;;;;;;;;;4947960;29;20477;-73
2022/04/25 12:20:42;;;;;;;11.43;10.33;;;;;;;;;;4938624;28;20509;-75
2022/04/25 12:23:08;;;;;;;14.63;12.67;;;;;;;;;;4937917;29;21087;-76
2022/04/25 12:25:39;;;;;;;17.17;13.60;;;;;;;;;;4936667;29;20415;-75
2022/04/25 12:28:17;;;;;;;16.73;12.80;;;10.50;96.30;;;;;;4936231;29;20455;-76
2022/04/25 12:30:52;;;;;;;14.70;12.90;;;;;;;;;;4944448;28;20510;-76
2022/04/25 12:33:20;;;;;;;15.93;13.30;;;10.20;96.30;;;;;;4936410;29;20419;-75
2022/04/25 12:35:47;;;;;;;14.20;11.30;;;;;;;;;;4946225;29;20444;-75
2022/04/25 12:38:33;;;;;;;14.27;12.57;;;10.40;96.30;;;;;;4953235;29;20970;-75
2022/04/25 12:40:59;;;;;;;14.70;12.00;;;10.40;96.30;;;;;;4953232;28;20501;-74
2022/04/25 12:43:34;;;;;;;14.60;12.37;;;10.40;96.30;;;;;;4953189;29;20423;-75
2022/04/25 12:46:00;;;;;;;14.27;12.70;;;;;;;;;;4954781;28;20179;-73
2022/04/25 12:48:26;;;;;;;14.90;11.43;;;;;;;;;;4952542;29;20931;-76
2022/04/25 12:50:53;;;;;;;14.20;12.30;;;;;;;;;;4936528;29;20234;-74
2022/04/25 12:53:37;;;;;;;14.20;11.90;;;;;;;;;;4954944;29;20426;-76
2022/04/25 12:56:03;;;;;;;14.40;12.30;;;;;;;;;;4954968;29;20501;-75
2022/04/25 12:58:34;;;;;;;15.23;11.80;;;11.00;96.30;;;;;;4937020;29;20504;-74
2022/04/25 13:01:00;;;;;;;14.20;12.80;;;10.70;96.30;;;;;;4935679;29;20503;-73
2022/04/25 13:03:28;;;;;;;13.13;11.80;;;10.70;96.30;;;;;;4935658;29;20407;-72
2022/04/25 13:05:54;;;;;;;12.70;11.40;;;;;;;;;;4918346;29;20330;-73
2022/04/25 13:08:20;;;;;;;14.90;12.50;;;10.40;96.30;;;;;;4953696;28;20430;-73
2022/04/25 13:10:46;;;;;;;13.73;12.37;;;10.50;96.30;;;;;;4937113;29;20466;-73
2022/04/25 13:13:13;;;;;;;13.23;11.83;;;;;;;;;;4954913;29;20644;-75
2022/04/25 13:15:39;;;;;;;11.20;10.10;;;;;;;;;;4954626;29;20801;-73
2022/04/25 13:18:05;;;;;;;12.80;11.00;;;11.30;96.30;;;;;;4937257;29;20466;-74
2022/04/25 13:20:33;;;;;;;15.47;11.40;;;;;;;;;;4954333;28;20175;-73
2022/04/25 13:23:01;;;;;;;14.77;10.73;;;11.80;96.30;;;;;;4954754;29;20494;-74
2022/04/25 13:25:27;;;;;;;15.57;10.70;;;11.40;96.30;;;;;;4954743;29;20506;-74
2022/04/25 13:27:53;;;;;;;11.57;9.93;;;11.20;96.30;;;;;;4954449;29;20513;-76
2022/04/25 13:30:20;;;;;;;15.17;9.33;;;10.60;96.30;;;;;;4954417;28;20242;-74
2022/04/25 13:32:46;;;;;;;12.03;9.60;;;10.30;96.30;;;;;;4954667;29;20426;-73
2022/04/25 13:35:17;;;;;;;11.70;10.43;;;;;;;;;;4951606;28;20521;-74
2022/04/25 13:37:44;;;;;;;11.07;9.97;;;11.20;96.30;;;;;;4954170;29;20463;-74
2022/04/25 13:40:10;;;;;;;13.87;10.83;;;11.80;96.30;;;;;;4937316;29;20422;-74
2022/04/25 13:42:36;;;;;;;13.63;10.00;;;11.90;96.30;;;;;;4954726;28;20441;-74
2022/04/25 13:45:02;;;;;;;11.07;8.90;;;11.60;96.30;;;;;;4954580;29;20414;-73
2022/04/25 13:47:28;;;;;;;9.93;7.87;;;;;;;;;;4954582;29;20571;-73
2022/04/25 13:49:55;;;;;;;9.63;7.93;;;;;;;;;;4952874;28;20182;-75
2022/04/25 13:52:21;;;;;;;9.57;8.30;;;10.40;96.30;;;;;;4963297;28;20493;-75
2022/04/25 13:54:46;;;;;;;11.53;9.30;;;11.10;96.30;;;;;;4973856;28;20414;-75
2022/04/25 13:57:13;;;;;;;12.40;10.07;;;;;;;;;;4956156;28;20206;-75
2022/04/25 13:59:39;;;;;;;10.03;8.57;;;;;;;;;;4936059;29;20175;-75
2022/04/25 14:04:49;;;;;;;9.60;7.83;;;13.20;96.30;;;;;;4945134;29;20465;-76
2022/04/25 14:07:15;;;;;;;9.30;7.30;;;12.90;96.30;;;;;;4933566;29;20912;-76
2022/04/25 14:09:41;;;;;;;7.60;6.80;;;12.90;96.30;;;;;;4932361;29;20184;-76
2022/04/25 14:12:07;;;;;;;8.63;6.90;;;12.90;96.30;;;;;;4943511;29;20449;-76
2022/04/25 14:14:32;;;;;;;7.50;6.77;;;12.90;96.30;;;;;;4949346;29;20178;-75
2022/04/25 14:17:00;;;;;;;7.97;6.50;;;;;;;;;;4936382;29;20219;-74
2022/04/25 14:19:28;;;;;;;12.70;6.40;;;12.50;96.30;;;;;;4936672;29;20187;-76
2022/04/25 14:21:54;;;;;;;8.30;6.57;;;12.70;96.30;;;;;;4939986;29;20526;-76
2022/04/25 14:24:21;;;;;;;8.20;7.07;;;;;;;;;;4938709;29;20522;-74
2022/04/25 14:26:49;;;;;;;6.63;5.70;;;12.50;96.30;;;;;;4955913;28;20433;-75
2022/04/25 14:29:15;;;;;;;6.03;5.43;;;;;;;;;;4979056;28;20423;-77
2022/04/25 14:31:41;;;;;;;6.97;5.50;;;;;;;;;;4979654;28;20773;-76
2022/04/25 14:34:07;;;;;;;10.40;6.30;;;12.50;96.30;;;;;;4979950;28;20414;-76
2022/04/25 14:36:33;;;;;;;7.13;6.43;;;12.50;96.30;;;;;;4953096;28;20966;-74
2022/04/25 14:38:59;;;;;;;7.77;6.97;;;;;;;;;;4959929;28;20429;-76
2022/04/25 14:41:25;;;;;;;9.40;6.47;;;;;;;;;;4947038;28;20249;-77
2022/04/25 14:43:51;;;;;;;7.37;6.60;;;;;;;;;;4955221;28;20852;-76
2022/04/25 14:46:16;;;;;;;6.07;5.50;;;13.50;96.30;;;;;;4945857;28;20197;-75
2022/04/25 14:48:42;;;;;;;7.43;6.10;;;14.00;96.30;;;;;;4942079;29;20789;-74
2022/04/25 14:56:38;;;;;;;5.93;5.07;;;;;;;;;;4978873;28;21039;-73
2022/04/25 14:59:07;;;;;;;6.60;6.00;;;;;;;;;;4960971;28;20418;-75
2022/04/25 15:01:34;;;;;;;7.60;6.70;;;;;;;;;;4940769;29;20215;-75
2022/04/25 15:04:00;;;;;;;7.70;6.47;;;;;;;;;;4957802;28;20853;-74
2022/04/25 15:06:26;;;;;;;7.17;5.33;;;;;;;;;;4979261;28;20445;-75
2022/04/25 15:08:51;;;;;;;6.67;5.70;;;11.80;96.30;;;;;;4961675;28;20273;-75
2022/04/25 15:11:17;;;;;;;7.07;6.43;;;12.20;96.30;;;;;;4979124;28;20436;-74
2022/04/25 15:13:42;;;;;;;9.10;6.83;;;12.40;96.30;;;;;;4976840;28;20197;-74
2022/04/25 15:16:08;;;;;;;8.87;7.00;;;;;;;;;;4942465;29;20182;-75
2022/04/25 15:18:34;;;;;;;14.00;6.43;;;;;;;;;;4958901;29;20213;-76
2022/04/25 15:21:00;;;;;;;9.03;6.90;;;12.50;96.30;;;;;;4959489;28;20442;-76
2022/04/25 15:23:25;;;;;;;7.13;6.00;;;12.40;96.30;;;;;;4959017;29;20186;-74
2022/04/25 15:25:52;;;;;;;11.17;6.07;;;12.20;96.30;;;;;;4952790;29;20183;-74
2022/04/25 15:28:18;;;;;;;8.57;6.50;;;12.10;96.30;;;;;;4950534;29;20250;-74
2022/04/25 15:30:44;;;;;;;9.93;6.30;;;11.80;96.30;;;;;;4955659;28;20450;-75
2022/04/25 15:33:09;;;;;;;7.80;6.10;;;12.00;96.30;;;;;;4948341;29;20454;-75
2022/04/25 15:35:37;;;;;;;7.40;6.60;;;12.30;96.30;;;;;;4945496;29;20192;-75
2022/04/25 15:38:03;;;;;;;6.67;5.93;;;12.30;96.30;;;;;;4934450;29;20204;-74
2022/04/25 15:40:29;;;;;;;8.57;6.67;;;;;;;;;;4938064;29;20823;-75
2022/04/25 15:42:55;;;;;;;7.00;6.30;;;;;;;;;;4940542;29;20466;-75
2022/04/25 15:45:21;;;;;;;6.97;6.23;;;12.30;96.30;;;;;;4945448;29;20446;-75
2022/04/25 15:47:46;;;;;;;9.00;6.30;;;12.30;96.30;;;;;;4950692;29;20210;-74
2022/04/25 15:50:12;;;;;;;7.60;6.07;;;12.20;96.30;;;;;;4934531;29;20703;-74
2022/04/25 15:52:38;;;;;;;8.70;6.37;;;12.10;96.30;;;;;;4943947;29;20205;-73
2022/04/25 15:57:52;;;;;;;7.17;6.03;;;12.40;96.30;;;;;;4951117;29;20214;-74
2022/04/25 16:00:19;;;;;;;6.57;5.93;;;12.40;96.30;;;;;;4945827;29;20422;-74
2022/04/25 16:02:46;;;;;;;9.70;6.07;;;12.20;96.30;;;;;;4937403;29;20871;-74
2022/04/25 16:05:13;;;;;;;6.43;5.80;;;12.30;96.30;;;;;;4946857;29;20442;-74
2022/04/25 16:07:38;;;;;;;10.30;6.60;;;12.20;96.30;;;;;;4954903;29;20430;-74
2022/04/25 16:10:04;;;;;;;9.13;6.10;;;;;;;;;;4954960;29;20945;-74
2022/04/25 16:12:30;;;;;;;6.67;5.97;;;;;;;;;;4955114;28;20286;-73
2022/04/25 16:14:56;;;;;;;7.43;6.07;;;12.10;96.30;;;;;;4954695;29;20518;-73
2022/04/25 16:17:22;;;;;;;8.83;6.30;;;12.00;96.30;;;;;;4954922;29;20195;-73
2022/04/25 16:19:48;;;;;;;11.23;5.70;;;11.80;96.30;;;;;;4948914;29;20183;-73
2022/04/25 16:22:13;;;;;;;6.33;5.60;;;11.70;96.30;;;;;;4951235;28;20451;-74
2022/04/25 16:24:39;;;;;;;7.60;6.27;;;11.70;96.30;;;;;;4955820;29;20179;-73
2022/04/25 16:27:06;;;;;;;7.40;6.57;;;11.60;96.30;;;;;;4955696;29;20616;-74
2022/04/25 16:29:32;;;;;;;7.17;6.27;;;11.60;96.30;;;;;;4955516;29;20597;-74
2022/04/25 16:31:59;;;;;;;7.33;6.50;;;11.40;96.30;;;;;;4961327;28;20473;-73
2022/04/25 16:34:30;;;;;;;7.10;6.17;;;;;;;;;;4953668;28;20422;-73
2022/04/25 16:36:56;;;;;;;8.10;6.30;;;11.20;96.30;;;;;;4954383;29;20465;-73
2022/04/25 16:39:23;;;;;;;6.77;6.00;;;;;;;;;;4952494;28;20424;-74
2022/04/25 16:41:49;;;;;;;12.70;6.20;;;;;;;;;;4945899;29;20853;-74
2022/04/25 16:44:15;;;;;;;6.80;6.20;;;;;;;;;;4953095;29;20425;-75
2022/04/25 16:46:47;;;;;;;9.33;5.87;;;;;;;;;;4948551;29;20431;-74
2022/04/25 16:49:12;;;;;;;8.70;6.37;;;10.50;96.30;;;;;;4948907;28;20465;-74
2022/04/25 16:51:39;;;;;;;6.97;6.23;;;10.40;96.30;;;;;;4953047;28;20478;-74
2022/04/25 16:54:05;;;;;;;7.47;5.87;;;10.40;96.30;;;;;;4943011;29;20193;-74
2022/04/25 16:56:31;;;;;;;10.00;6.50;;;10.50;96.30;;;;;;4941794;29;21080;-74
2022/04/25 16:58:57;;;;;;;6.90;6.03;;;10.60;96.30;;;;;;4946376;29;20427;-75
2022/04/25 17:01:22;;;;;;;7.77;6.50;;;10.60;96.30;;;;;;4953708;28;20438;-75
2022/04/25 17:03:48;;;;;;;7.43;5.60;;;;;;;;;;4953808;29;20226;-72
2022/04/25 17:06:13;;;;;;;10.10;6.20;;;10.30;96.30;;;;;;4935020;29;20178;-72
2022/04/25 17:08:39;;;;;;;9.80;6.00;;;10.10;96.30;;;;;;4949447;29;20735;-72
2022/04/25 17:11:04;;;;;;;7.63;5.97;;;9.90;96.30;;;;;;4951877;28;20690;-73
2022/04/25 17:13:31;;;;;;;6.93;5.67;;;;;;;;;;4948603;28;20258;-72
2022/04/25 17:15:57;;;;;;;10.83;6.70;;;;;;;;;;4953052;29;20770;-75
2022/04/25 17:18:23;;;;;;;9.00;7.03;;;9.80;96.30;;;;;;4949005;29;20473;-74
2022/04/25 17:20:49;;;;;;;11.20;6.97;;;;;;;;;;4953695;28;20439;-76
2022/04/25 17:23:15;;;;;;;9.40;8.50;;;;;;;;;;4947407;29;20187;-73
2022/04/25 17:25:41;;;;;;;13.83;8.57;;;;;;;;;;4952299;29;20457;-73
2022/04/25 17:28:10;;;;;;;9.77;7.90;;;9.40;96.30;;;;;;4949002;29;20887;-74
2022/04/25 17:30:39;;;;;;;9.53;5.80;;;9.40;96.30;;;;;;4953511;28;20210;-75
2022/04/25 17:35:49;;;;;;;7.50;6.80;;;9.30;96.30;;;;;;4944391;29;20424;-75
